Time;durP1;ratioP1;P1;durP2;ratioP2;P2;SDS_P1;SDS_P2;PMS_P1;PMS_P2;Temp;Humidity;BMP_temperature;BMP_pressure;BME280_temperature;BME280_humidity;BME280_pressure;Samples;Min_cycle;Max_cycle;Signal;HPM_P1;HPM_P2
2021/11/28 00:02:19;;;;;;;5.00;4.50;;;;;;;;;;5032282;28;20045;-56
2021/11/28 00:04:46;;;;;;;5.20;4.27;;;;;;;;;;5049582;28;20049;-58
2021/11/28 00:07:46;;;;;;;5.67;4.03;;;;;;;;;;5052067;28;20037;-57
2021/11/28 00:12:50;;;;;;;4.33;2.77;;;;;;;;;;5052151;28;20502;-58
2021/11/28 00:15:18;;;;;;;3.97;3.43;;;;;;;;;;5051864;28;20033;-57
2021/11/28 00:17:45;;;;;;;3.87;2.93;;;;;;;;;;5051678;28;20048;-57
2021/11/28 00:20:12;;;;;;;8.30;2.97;;;;;;;;;;5051727;28;20052;-56
2021/11/28 00:22:39;;;;;;;6.40;2.87;;;;;;;;;;5051751;28;20040;-57
2021/11/28 00:25:07;;;;;;;4.37;3.33;;;;;;;;;;5051582;28;20036;-55
2021/11/28 00:27:33;;;;;;;5.37;3.93;;;;;;;;;;5051796;28;20025;-54
2021/11/28 00:29:59;;;;;;;4.80;3.90;;;;;;;;;;5051101;28;20031;-57
2021/11/28 00:32:25;;;;;;;9.57;3.77;;;;;;;;;;5051671;28;20025;-55
2021/11/28 00:34:52;;;;;;;6.20;4.30;;;;;;;;;;5051632;28;20033;-56
2021/11/28 00:37:18;;;;;;;3.93;3.00;;;;;;;;;;5051945;28;20049;-57
2021/11/28 00:39:46;;;;;;;3.80;3.30;;;;;;;;;;5051134;28;20088;-56
2021/11/28 00:42:12;;;;;;;3.80;3.13;;;;;;;;;;5051385;28;20467;-55
2021/11/28 00:44:38;;;;;;;7.90;4.00;;;;;;;;;;5051507;28;20025;-57
2021/11/28 00:47:04;;;;;;;4.47;3.43;;;;;;;;;;5051632;28;20033;-57
2021/11/28 00:49:30;;;;;;;5.20;4.13;;;;;;;;;;5050797;28;20055;-57
2021/11/28 00:51:56;;;;;;;5.67;3.53;;;;;;;;;;5051465;28;20356;-57
2021/11/28 00:54:23;;;;;;;4.47;3.80;;;;;;;;;;5051782;28;20040;-51
2021/11/28 00:56:49;;;;;;;4.17;3.47;;;;;;;;;;5051313;28;20029;-57
2021/11/28 00:59:15;;;;;;;6.33;3.70;;;;;;;;;;5050904;28;20082;-56
2021/11/28 01:01:42;;;;;;;5.17;3.67;;;;;;;;;;5051416;28;20029;-57
2021/11/28 01:04:08;;;;;;;5.53;4.53;;;;;;;;;;5038809;28;20569;-56
2021/11/28 01:06:34;;;;;;;6.60;5.03;;;;;;;;;;5031142;28;20123;-57
2021/11/28 01:09:00;;;;;;;6.50;5.13;;;;;;;;;;5032411;28;20068;-56
2021/11/28 01:11:26;;;;;;;7.27;5.10;;;;;;;;;;5034937;28;20056;-56
2021/11/28 01:13:52;;;;;;;5.60;4.60;;;;;;;;;;5034857;28;20083;-56
2021/11/28 01:16:19;;;;;;;4.20;3.80;;;;;;;;;;5035129;28;20029;-56
2021/11/28 01:18:45;;;;;;;4.93;4.17;;;;;;;;;;5034230;28;20116;-57
2021/11/28 01:21:11;;;;;;;5.73;4.27;;;;;;;;;;5034631;28;20026;-56
2021/11/28 01:23:37;;;;;;;6.07;4.57;;;;;;;;;;5035042;28;20030;-57
2021/11/28 01:26:03;;;;;;;7.57;5.00;;;;;;;;;;5034770;28;20057;-56
2021/11/28 01:28:30;;;;;;;5.73;4.20;;;;;;;;;;5034104;28;20030;-54
2021/11/28 01:30:56;;;;;;;6.63;3.80;;;;;;;;;;5034642;28;20030;-54
2021/11/28 01:33:22;;;;;;;7.10;4.70;;;;;;;;;;5034506;28;20025;-55
2021/11/28 01:35:48;;;;;;;4.30;3.87;;;;;;;;;;5034026;28;20091;-54
2021/11/28 01:38:18;;;;;;;5.63;3.67;;;;;;;;;;5033764;28;20029;-55
2021/11/28 01:40:45;;;;;;;4.35;2.90;;;;;;;;;;5034261;28;20452;-54
2021/11/28 01:43:15;;;;;;;4.17;2.60;;;;;;;;;;5034220;28;20106;-55
2021/11/28 01:45:42;;;;;;;2.78;2.13;;;;;;;;;;5034129;28;20029;-53
2021/11/28 01:48:09;;;;;;;4.23;3.07;;;;;;;;;;5033772;28;20034;-52
2021/11/28 01:50:36;;;;;;;3.40;2.40;;;;;;;;;;5033980;28;20056;-54
2021/11/28 01:53:03;;;;;;;3.40;2.60;;;;;;;;;;5034410;28;20025;-51
2021/11/28 01:55:30;;;;;;;4.27;2.37;;;;;;;;;;5033913;28;20087;-50
2021/11/28 01:57:56;;;;;;;6.43;4.13;;;;;;;;;;5033864;28;20025;-54
2021/11/28 02:00:27;;;;;;;6.13;3.47;;;;;;;;;;5034090;28;20029;-50
2021/11/28 02:02:53;;;;;;;;;;;;;;;;;;5036380;28;20064;-54
2021/11/28 02:05:20;;;;;;;2.10;1.80;;;;;;;;;;5053720;28;20377;-51
2021/11/28 02:07:46;;;;;;;6.20;3.00;;;;;;;;;;5053467;28;20033;-55
2021/11/28 02:10:13;;;;;;;5.00;2.63;;;;;;;;;;5053647;28;20028;-53
2021/11/28 02:12:39;;;;;;;4.43;3.17;;;;;;;;;;5053615;28;20470;-54
2021/11/28 02:15:06;;;;;;;5.23;3.43;;;;;;;;;;5053901;28;20025;-54
2021/11/28 02:17:32;;;;;;;3.67;2.67;;;;;;;;;;5053221;28;20382;-55
2021/11/28 02:19:58;;;;;;;3.63;2.27;;;;;;;;;;5052705;28;20451;-57
2021/11/28 02:22:24;;;;;;;5.27;2.83;;;;;;;;;;5053435;28;20021;-56
2021/11/28 02:24:50;;;;;;;3.70;1.97;;;;;;;;;;5053357;28;20033;-57
2021/11/28 02:27:16;;;;;;;7.03;2.77;;;;;;;;;;5053259;28;20029;-54
2021/11/28 02:29:43;;;;;;;4.10;2.30;;;;;;;;;;5052427;28;20033;-54
2021/11/28 02:32:10;;;;;;;3.93;2.47;;;;;;;;;;5053308;28;20028;-57
2021/11/28 02:34:37;;;;;;;2.37;1.80;;;;;;;;;;5053492;28;20021;-55
2021/11/28 02:37:03;;;;;;;3.50;2.20;;;;;;;;;;5053135;28;20060;-56
2021/11/28 02:39:29;;;;;;;8.47;2.47;;;;;;;;;;5052613;28;20025;-55
2021/11/28 02:41:55;;;;;;;3.60;2.70;;;;;;;;;;5052955;28;20036;-58
2021/11/28 02:44:21;;;;;;;3.40;2.20;;;;;;;;;;5052740;28;20035;-56
2021/11/28 02:46:47;;;;;;;3.03;2.50;;;;;;;;;;5053259;28;20052;-54
2021/11/28 02:49:15;;;;;;;3.40;2.37;;;;;;;;;;5052825;28;20025;-58
2021/11/28 02:51:42;;;;;;;3.90;3.00;;;;;;;;;;5052846;28;20025;-52
2021/11/28 02:54:08;;;;;;;4.47;1.83;;;;;;;;;;5052984;28;20060;-58
2021/11/28 02:56:34;;;;;;;2.40;1.93;;;;;;;;;;5052684;28;20025;-56
2021/11/28 02:59:00;;;;;;;3.47;2.50;;;;;;;;;;5052059;28;20486;-57
2021/11/28 03:01:26;;;;;;;7.80;2.73;;;;;;;;;;5052821;28;20025;-57
2021/11/28 03:03:53;;;;;;;2.60;2.17;;;;;;;;;;5042480;28;20036;-52
2021/11/28 03:06:19;;;;;;;3.53;2.83;;;;;;;;;;5032663;28;20048;-57
2021/11/28 03:08:46;;;;;;;2.97;2.00;;;;;;;;;;5032160;28;20104;-58
2021/11/28 03:11:14;;;;;;;2.93;2.10;;;;;;;;;;5032539;28;20436;-53
2021/11/28 03:13:41;;;;;;;5.67;2.07;;;;;;;;;;5032697;28;20030;-57
2021/11/28 03:16:09;;;;;;;3.63;1.50;;;;;;;;;;5032433;28;20029;-56
2021/11/28 03:18:35;;;;;;;2.17;1.67;;;;;;;;;;5031889;28;20026;-51
2021/11/28 03:21:04;;;;;;;3.83;1.83;;;;;;;;;;5032689;28;20029;-51
2021/11/28 03:23:31;;;;;;;11.37;2.23;;;;;;;;;;5032387;28;20044;-53
2021/11/28 03:26:04;;;;;;;3.33;1.93;;;;;;;;;;5032417;28;20426;-49
2021/11/28 03:28:30;;;;;;;3.07;1.87;;;;;;;;;;5031866;28;20089;-52
2021/11/28 03:30:56;;;;;;;2.67;1.77;;;;;;;;;;5031831;28;20032;-51
2021/11/28 03:33:22;;;;;;;8.90;1.37;;;;;;;;;;5032238;28;20476;-54
2021/11/28 03:35:49;;;;;;;3.97;1.77;;;;;;;;;;5032420;28;20029;-53
2021/11/28 03:38:15;;;;;;;4.40;1.83;;;;;;;;;;5031474;28;20025;-52
2021/11/28 03:40:41;;;;;;;2.70;1.93;;;;;;;;;;5032024;28;20049;-53
2021/11/28 03:43:07;;;;;;;2.23;1.40;;;;;;;;;;5031977;28;20033;-52
2021/11/28 03:45:34;;;;;;;2.30;1.10;;;;;;;;;;5031911;28;20087;-55
2021/11/28 03:48:00;;;;;;;3.10;1.80;;;;;;;;;;5031522;28;20327;-54
2021/11/28 03:50:26;;;;;;;4.33;1.83;;;;;;;;;;5032257;28;20021;-55
2021/11/28 03:52:52;;;;;;;4.87;3.03;;;;;;;;;;5031970;28;20052;-54
2021/11/28 03:55:20;;;;;;;4.47;2.37;;;;;;;;;;5032018;28;20045;-51
2021/11/28 03:57:46;;;;;;;2.33;1.57;;;;;;;;;;5030087;28;20094;-59
2021/11/28 04:00:13;;;;;;;3.87;1.47;;;;;;;;;;5032164;28;20347;-51
2021/11/28 04:02:39;;;;;;;3.73;1.57;;;;;;;;;;5031937;28;20481;-52
2021/11/28 04:05:05;;;;;;;4.20;1.90;;;;;;;;;;5051872;28;20435;-57
2021/11/28 04:07:31;;;;;;;2.63;1.80;;;;;;;;;;5051569;28;20466;-54
2021/11/28 04:09:58;;;;;;;5.33;1.87;;;;;;;;;;5050990;28;20039;-54
2021/11/28 04:12:24;;;;;;;6.73;2.90;;;;;;;;;;5052082;28;20029;-53
2021/11/28 04:14:50;;;;;;;6.80;2.17;;;;;;;;;;5051881;28;20061;-51
2021/11/28 04:17:16;;;;;;;2.97;1.43;;;;;;;;;;5051527;28;20543;-52
2021/11/28 04:19:41;;;;;;;2.50;2.20;;;;;;;;;;5051037;28;20048;-54
2021/11/28 04:22:07;;;;;;;3.00;2.20;;;;;;;;;;5051599;28;20029;-52
2021/11/28 04:24:33;;;;;;;3.43;1.90;;;;;;;;;;5051588;28;20474;-53
2021/11/28 04:26:59;;;;;;;5.50;2.30;;;;;;;;;;5051828;28;20033;-55
2021/11/28 04:29:26;;;;;;;2.73;2.10;;;;;;;;;;5051235;28;20021;-54
2021/11/28 04:31:52;;;;;;;3.97;2.27;;;;;;;;;;5046409;28;20121;-53
2021/11/28 04:34:18;;;;;;;3.10;1.97;;;;;;;;;;5051648;28;20248;-55
2021/11/28 04:36:44;;;;;;;2.73;2.00;;;;;;;;;;5052107;28;20033;-55
2021/11/28 04:39:10;;;;;;;2.90;1.30;;;;;;;;;;5051210;28;20029;-55
2021/11/28 04:41:36;;;;;;;4.57;2.43;;;;;;;;;;5040276;28;20039;-52
2021/11/28 04:44:03;;;;;;;6.33;2.53;;;;;;;;;;5034598;28;20087;-53
2021/11/28 04:46:29;;;;;;;3.50;2.50;;;;;;;;;;5035522;28;20075;-54
2021/11/28 04:48:55;;;;;;;2.50;2.00;;;;;;;;;;5034533;28;20021;-56
2021/11/28 04:51:20;;;;;;;4.07;2.07;;;;;;;;;;5035311;28;20032;-57
2021/11/28 04:53:46;;;;;;;3.20;2.47;;;;;;;;;;5035250;28;20045;-54
2021/11/28 04:56:12;;;;;;;3.30;1.93;;;;;;;;;;5054966;28;20060;-57
2021/11/28 04:58:38;;;;;;;4.67;2.83;;;;;;;;;;5054420;28;20463;-55
2021/11/28 05:01:04;;;;;;;6.13;1.90;;;;;;;;;;5054758;28;20021;-54
2021/11/28 05:03:30;;;;;;;7.47;2.50;;;;;;;;;;5048864;28;20075;-53
2021/11/28 05:05:56;;;;;;;5.30;2.13;;;;;;;;;;5055043;28;20021;-56
2021/11/28 05:08:22;;;;;;;4.07;2.30;;;;;;;;;;5053959;28;20017;-57
2021/11/28 05:10:48;;;;;;;4.17;1.60;;;;;;;;;;5055065;28;20029;-52
2021/11/28 05:13:14;;;;;;;3.77;2.10;;;;;;;;;;5054688;28;20037;-57
2021/11/28 05:15:40;;;;;;;2.23;1.40;;;;;;;;;;5034875;28;20033;-56
2021/11/28 05:18:06;;;;;;;3.00;1.87;;;;;;;;;;5034011;28;20033;-54
2021/11/28 05:20:32;;;;;;;5.07;1.87;;;;;;;;;;5034687;28;20151;-55
2021/11/28 05:22:58;;;;;;;2.60;1.63;;;;;;;;;;5034398;28;20364;-55
2021/11/28 05:25:24;;;;;;;3.13;1.83;;;;;;;;;;5051074;28;20029;-53
2021/11/28 05:27:50;;;;;;;2.73;1.97;;;;;;;;;;5053670;28;20036;-52
2021/11/28 05:30:17;;;;;;;4.87;2.03;;;;;;;;;;5054438;28;20037;-53
2021/11/28 05:32:43;;;;;;;1.93;1.37;;;;;;;;;;5054395;28;20029;-55
2021/11/28 05:35:09;;;;;;;6.03;2.20;;;;;;;;;;5039374;28;20040;-54
2021/11/28 05:37:35;;;;;;;1.77;1.13;;;;;;;;;;5034491;28;20030;-54
2021/11/28 05:40:01;;;;;;;2.03;1.17;;;;;;;;;;5033630;28;20029;-54
2021/11/28 05:42:27;;;;;;;3.07;1.53;;;;;;;;;;5034335;28;20418;-55
2021/11/28 05:44:54;;;;;;;1.53;0.70;;;;;;;;;;5036095;28;20368;-55
2021/11/28 05:47:20;;;;;;;2.87;1.83;;;;;;;;;;5034193;28;20108;-53
2021/11/28 05:49:45;;;;;;;2.63;1.20;;;;;;;;;;5033125;28;20125;-52
2021/11/28 05:52:11;;;;;;;2.67;1.50;;;;;;;;;;5034368;28;20055;-56
2021/11/28 05:54:37;;;;;;;3.67;1.53;;;;;;;;;;5034493;28;20215;-53
2021/11/28 05:57:04;;;;;;;2.33;1.53;;;;;;;;;;5034133;28;20039;-55
2021/11/28 05:59:30;;;;;;;1.50;1.00;;;;;;;;;;5033424;28;20141;-56
2021/11/28 06:01:56;;;;;;;6.57;1.87;;;;;;;;;;5033938;28;20384;-55
2021/11/28 06:04:22;;;;;;;2.67;1.80;;;;;;;;;;5047160;28;20128;-53
2021/11/28 06:06:48;;;;;;;4.17;1.93;;;;;;;;;;5054046;28;20037;-53
2021/11/28 06:09:14;;;;;;;2.50;1.87;;;;;;;;;;5053242;28;20028;-54
2021/11/28 06:11:40;;;;;;;2.17;1.10;;;;;;;;;;5053825;28;20134;-55
2021/11/28 06:14:06;;;;;;;2.20;1.73;;;;;;;;;;5048764;28;20498;-57
2021/11/28 06:16:32;;;;;;;5.53;2.30;;;;;;;;;;5042209;28;20094;-55
2021/11/28 06:18:58;;;;;;;2.83;1.63;;;;;;;;;;5052753;28;20088;-54
2021/11/28 06:21:24;;;;;;;3.00;1.60;;;;;;;;;;5053715;28;20033;-56
2021/11/28 06:23:50;;;;;;;2.50;1.53;;;;;;;;;;5051215;28;20036;-54
2021/11/28 06:26:16;;;;;;;4.00;1.70;;;;;;;;;;5033593;28;20029;-53
2021/11/28 06:28:42;;;;;;;2.60;1.57;;;;;;;;;;5033380;28;20033;-54
2021/11/28 06:31:08;;;;;;;2.97;1.80;;;;;;;;;;5033594;28;20364;-55
2021/11/28 06:33:34;;;;;;;2.23;1.50;;;;;;;;;;5033216;28;20064;-57
2021/11/28 06:36:01;;;;;;;2.63;1.40;;;;;;;;;;5053007;28;20033;-56
2021/11/28 06:38:27;;;;;;;6.00;2.92;;;;;;;;;;5052723;28;20029;-55
2021/11/28 06:40:52;;;;;;;2.93;2.40;;;;;;;;;;5053307;28;20425;-57
2021/11/28 06:43:18;;;;;;;2.37;1.40;;;;;;;;;;5053157;28;20036;-58
2021/11/28 06:45:44;;;;;;;3.00;1.90;;;;;;;;;;5039338;28;20041;-56
2021/11/28 06:48:10;;;;;;;3.93;2.00;;;;;;;;;;5032485;28;20021;-57
2021/11/28 06:50:36;;;;;;;2.30;1.40;;;;;;;;;;5033559;28;20030;-57
2021/11/28 06:53:04;;;;;;;2.67;1.70;;;;;;;;;;5033236;28;20025;-58
2021/11/28 06:55:31;;;;;;;2.53;1.60;;;;;;;;;;5048075;28;20056;-56
2021/11/28 06:57:56;;;;;;;5.47;2.23;;;;;;;;;;5052550;28;20028;-53
2021/11/28 07:00:22;;;;;;;2.17;1.37;;;;;;;;;;5052925;28;20033;-56
2021/11/28 07:02:49;;;;;;;2.37;1.40;;;;;;;;;;5051095;28;20029;-54
2021/11/28 07:05:15;;;;;;;3.70;2.23;;;;;;;;;;5045341;28;20108;-57
2021/11/28 07:07:42;;;;;;;3.47;2.37;;;;;;;;;;5052111;28;20103;-55
2021/11/28 07:10:08;;;;;;;3.77;2.63;;;;;;;;;;5052458;28;20036;-57
2021/11/28 07:12:34;;;;;;;3.90;2.40;;;;;;;;;;5052834;28;20025;-58
2021/11/28 07:15:00;;;;;;;3.30;2.07;;;;;;;;;;5041825;28;20432;-58
2021/11/28 07:17:26;;;;;;;4.30;2.77;;;;;;;;;;5032638;28;20030;-58
2021/11/28 07:19:52;;;;;;;5.50;2.20;;;;;;;;;;5032186;28;20030;-58
2021/11/28 07:22:18;;;;;;;2.93;2.10;;;;;;;;;;5036812;28;20029;-58
2021/11/28 07:24:44;;;;;;;2.70;2.00;;;;;;;;;;5040626;28;20055;-55
2021/11/28 07:27:10;;;;;;;5.80;2.17;;;;;;;;;;5052508;28;20115;-54
2021/11/28 07:29:36;;;;;;;3.70;2.47;;;;;;;;;;5051768;28;20036;-57
2021/11/28 07:32:02;;;;;;;5.53;2.43;;;;;;;;;;5052420;28;20025;-54
2021/11/28 07:34:28;;;;;;;3.97;2.13;;;;;;;;;;5051418;28;20155;-56
2021/11/28 07:36:54;;;;;;;2.57;2.00;;;;;;;;;;5052626;28;20119;-57
2021/11/28 07:39:21;;;;;;;5.20;2.47;;;;;;;;;;5051807;28;20025;-55
2021/11/28 07:41:47;;;;;;;7.67;2.87;;;;;;;;;;5050680;28;20374;-55
2021/11/28 07:44:13;;;;;;;3.80;2.37;;;;;;;;;;5041131;28;20033;-56
2021/11/28 07:46:39;;;;;;;3.53;2.40;;;;;;;;;;5032201;28;20040;-56
2021/11/28 07:49:05;;;;;;;2.63;1.90;;;;;;;;;;5031832;28;20529;-58
2021/11/28 07:51:31;;;;;;;4.53;2.63;;;;;;;;;;5033791;28;20048;-56
2021/11/28 07:53:58;;;;;;;5.17;2.27;;;;;;;;;;5052047;28;20059;-52
2021/11/28 07:56:24;;;;;;;4.37;2.60;;;;;;;;;;5052526;28;20025;-57
2021/11/28 07:58:50;;;;;;;5.73;3.27;;;;;;;;;;5051500;28;20029;-54
2021/11/28 08:01:16;;;;;;;3.40;2.53;;;;;;;;;;5051676;28;20031;-56
2021/11/28 08:03:42;;;;;;;3.15;2.60;;;;;;;;;;5041196;28;20438;-54
2021/11/28 08:06:09;;;;;;;2.97;2.60;;;;;;;;;;5051757;28;20098;-55
2021/11/28 08:08:35;;;;;;;5.10;3.50;;;;;;;;;;5051356;28;20025;-52
2021/11/28 08:11:01;;;;;;;6.90;3.73;;;;;;;;;;5051789;28;20036;-56
2021/11/28 08:13:27;;;;;;;5.13;3.70;;;;;;;;;;5051152;28;20107;-55
2021/11/28 08:15:53;;;;;;;4.20;2.97;;;;;;;;;;5052175;28;20056;-56
2021/11/28 08:18:19;;;;;;;4.90;3.13;;;;;;;;;;5053946;28;20085;-56
2021/11/28 08:20:45;;;;;;;4.63;3.20;;;;;;;;;;5056252;28;20021;-57
2021/11/28 08:23:11;;;;;;;2.63;2.07;;;;;;;;;;5040858;28;20033;-57
2021/11/28 08:25:37;;;;;;;5.60;2.97;;;;;;;;;;5035800;28;20026;-57
2021/11/28 08:28:07;;;;;;;6.67;2.73;;;;;;;;;;5035484;28;20422;-56
2021/11/28 08:30:33;;;;;;;2.50;1.83;;;;;;;;;;5036213;28;20099;-53
2021/11/28 08:33:00;;;;;;;3.23;2.60;;;;;;;;;;5049039;28;20037;-57
2021/11/28 08:35:29;;;;;;;4.63;2.70;;;;;;;;;;5053000;28;20037;-55
2021/11/28 08:37:55;;;;;;;7.17;3.77;;;;;;;;;;5041642;28;20091;-56
2021/11/28 08:40:21;;;;;;;4.57;3.17;;;;;;;;;;5039970;28;20471;-53
2021/11/28 08:42:47;;;;;;;3.65;2.67;;;;;;;;;;5049051;28;20029;-56
2021/11/28 08:45:13;;;;;;;4.63;3.47;;;;;;;;;;5054423;28;20037;-56
2021/11/28 08:47:39;;;;;;;7.30;3.87;;;;;;;;;;5055219;28;20032;-56
2021/11/28 08:50:07;;;;;;;7.17;3.80;;;;;;;;;;5054939;28;20400;-56
2021/11/28 08:52:33;;;;;;;5.60;3.80;;;;;;;;;;5055150;28;20025;-54
2021/11/28 08:54:59;;;;;;;7.87;4.33;;;;;;;;;;5055075;28;20090;-55
2021/11/28 08:57:25;;;;;;;4.13;3.17;;;;;;;;;;5055111;28;20025;-57
2021/11/28 08:59:51;;;;;;;5.15;3.10;;;;;;;;;;5052794;28;20024;-56
2021/11/28 09:02:18;;;;;;;4.90;3.43;;;;;;;;;;5052853;28;20475;-54
2021/11/28 09:04:44;;;;;;;6.30;4.47;;;;;;;;;;5037611;28;20044;-57
2021/11/28 09:07:11;;;;;;;6.87;4.13;;;;;;;;;;5034899;28;20088;-57
2021/11/28 09:09:37;;;;;;;4.97;4.47;;;;;;;;;;5050851;28;20036;-54
2021/11/28 09:12:04;;;;;;;5.07;3.60;;;;;;;;;;5054503;28;20040;-54
2021/11/28 09:14:30;;;;;;;4.35;3.95;;;;;;;;;;5054999;28;20363;-57
2021/11/28 09:16:57;;;;;;;7.37;4.37;;;;;;;;;;5054913;28;20036;-58
2021/11/28 09:24:26;;;;;;;7.20;3.70;;;;;;;;;;5021958;28;20044;-57
2021/11/28 09:25:20;;;;;;;4.87;2.97;;;;;;;;;;5042631;28;20052;-55
2021/11/28 09:27:48;;;;;;;6.90;3.93;;;;;;;;;;5053857;28;20036;-58
2021/11/28 09:30:15;;;;;;;5.33;3.97;;;;;;;;;;5053510;28;20366;-53
2021/11/28 09:32:41;;;;;;;5.13;2.90;;;;;;;;;;5054319;28;20025;-57
2021/11/28 09:35:07;;;;;;;3.27;2.30;;;;;;;;;;5054407;28;20400;-56
2021/11/28 09:37:33;;;;;;;3.37;2.33;;;;;;;;;;5035988;28;20088;-57
2021/11/28 09:40:00;;;;;;;3.17;2.47;;;;;;;;;;5033954;28;20119;-57
2021/11/28 09:42:31;;;;;;;3.70;2.60;;;;;;;;;;5034380;28;20034;-56
2021/11/28 09:44:58;;;;;;;4.27;2.47;;;;;;;;;;5034091;28;20391;-57
2021/11/28 09:47:25;;;;;;;5.43;2.30;;;;;;;;;;5033884;28;20033;-55
2021/11/28 09:49:51;;;;;;;3.13;1.93;;;;;;;;;;5033733;28;20048;-55
2021/11/28 09:52:23;;;;;;;3.50;2.50;;;;;;;;;;5034302;28;20053;-57
2021/11/28 09:54:52;;;;;;;5.37;2.90;;;;;;;;;;5033965;28;20479;-58
2021/11/28 09:57:19;;;;;;;3.00;2.30;;;;;;;;;;5052694;28;20165;-58
2021/11/28 09:59:46;;;;;;;5.90;2.35;;;;;;;;;;5051477;28;20029;-58
2021/11/28 10:02:26;;;;;;;2.57;1.83;;;;;;;;;;5053762;28;20139;-57
2021/11/28 10:04:53;;;;;;;3.77;2.50;;;;;;;;;;5035209;28;20041;-58
2021/11/28 10:07:19;;;;;;;3.72;2.42;;;;;;;;;;5051712;28;20025;-58
2021/11/28 10:09:45;;;;;;;4.20;2.47;;;;;;;;;;5052585;28;20056;-57
2021/11/28 10:12:22;;;;;;;3.65;3.08;;;;;;;;;;5053564;28;20021;-55
2021/11/28 10:14:52;;;;;;;4.28;2.20;;;;;;;;;;5053170;28;20033;-58
2021/11/28 10:17:19;;;;;;;6.60;3.00;;;;;;;;;;5035375;28;20036;-55
2021/11/28 10:19:45;;;;;;;3.80;2.37;;;;;;;;;;5032900;28;20069;-57
2021/11/28 10:22:11;;;;;;;3.53;2.40;;;;;;;;;;5043460;28;20047;-57
2021/11/28 10:24:48;;;;;;;5.97;2.88;;;;;;;;;;5034827;28;20037;-57
2021/11/28 10:27:14;;;;;;;3.72;2.53;;;;;;;;;;5038210;28;20053;-57
2021/11/28 10:29:41;;;;;;;4.72;2.85;;;;;;;;;;5052271;28;20450;-58
2021/11/28 10:32:09;;;;;;;5.07;3.00;;;;;;;;;;5053449;28;20040;-58
2021/11/28 10:34:36;;;;;;;5.27;2.67;;;;;;;;;;5053782;28;20060;-57
2021/11/28 10:37:02;;;;;;;2.72;1.98;;;;;;;;;;5035275;28;20029;-55
2021/11/28 10:39:28;;;;;;;3.30;1.97;;;;;;;;;;5032405;28;20104;-58
2021/11/28 10:41:55;;;;;;;3.40;2.30;;;;;;;;;;5032727;28;20043;-59
2021/11/28 10:44:22;;;;;;;5.43;2.27;;;;;;;;;;5033150;28;20037;-58
2021/11/28 10:46:50;;;;;;;2.17;1.60;;;;;;;;;;5049287;28;20136;-58
2021/11/28 10:49:17;;;;;;;5.18;2.25;;;;;;;;;;5052278;28;20070;-57
2021/11/28 10:51:55;;;;;;;2.72;1.98;;;;;;;;;;5052848;28;20108;-57
2021/11/28 10:54:21;;;;;;;3.83;1.65;;;;;;;;;;5053032;28;20032;-58
2021/11/28 10:56:48;;;;;;;2.13;1.30;;;;;;;;;;5036422;28;20482;-58
2021/11/28 10:59:18;;;;;;;1.88;1.30;;;;;;;;;;5031702;28;20026;-57
2021/11/28 11:01:44;;;;;;;3.83;1.87;;;;;;;;;;5037511;28;20036;-58
2021/11/28 11:04:20;;;;;;;3.37;1.83;;;;;;;;;;5041594;28;20167;-58
2021/11/28 11:07:06;;;;;;;4.97;1.80;;;;;;;;;;5041243;28;20043;-59
2021/11/28 11:09:40;;;;;;;4.73;2.60;;;;;;;;;;5047650;28;20409;-59
2021/11/28 11:12:21;;;;;;;3.33;2.28;;;;;;;;;;5048860;28;20029;-59
2021/11/28 11:14:51;;;;;;;3.67;2.22;;;;;;;;;;5038673;28;20033;-59
2021/11/28 11:17:18;;;;;;;2.65;2.15;;;;;;;;;;5041933;28;20367;-56
2021/11/28 11:19:50;;;;;;;4.03;2.55;;;;;;;;;;5046659;28;20026;-56
2021/11/28 11:22:18;;;;;;;3.55;2.10;;;;;;;;;;5048519;28;20031;-55
2021/11/28 11:24:51;;;;;;;2.45;1.48;;;;;;;;;;5032252;28;20017;-56
2021/11/28 11:27:18;;;;;;;2.83;1.58;;;;;;;;;;5046573;28;20458;-56
2021/11/28 11:29:49;;;;;;;4.78;2.58;;;;;;;;;;5037599;28;20079;-56
2021/11/28 11:32:16;;;;;;;2.70;1.92;;;;;;;;;;5034763;28;20034;-55
2021/11/28 11:34:50;;;;;;;3.33;1.70;;;;;;;;;;5041832;28;20055;-56
2021/11/28 11:37:18;;;;;;;2.78;1.80;;;;;;;;;;5049689;28;20028;-56
2021/11/28 11:39:45;;;;;;;3.78;1.65;;;;;;;;;;5041882;28;20025;-56
2021/11/28 11:42:12;;;;;;;2.30;1.50;;;;;;;;;;5045968;28;20458;-57
2021/11/28 11:44:38;;;;;;;3.10;1.83;;;;;;;;;;5037771;28;20047;-55
2021/11/28 11:47:04;;;;;;;2.47;1.65;;;;;;;;;;5046673;28;20470;-56
2021/11/28 11:49:31;;;;;;;2.08;1.23;;;;;;;;;;5039875;28;20056;-59
2021/11/28 11:51:57;;;;;;;3.63;1.10;;;;;;;;;;5039683;28;20374;-58
2021/11/28 11:54:24;;;;;;;3.88;1.70;;;;;;;;;;5048402;28;20512;-59
2021/11/28 11:56:58;;;;;;;1.58;1.20;;;;;;;;;;5031950;28;20022;-59
2021/11/28 11:59:43;;;;;;;2.83;1.10;;;;;;;;;;5033336;28;20033;-57
2021/11/28 12:02:09;;;;;;;2.70;1.50;;;;;;;;;;5047190;28;20068;-58
2021/11/28 12:04:39;;;;;;;4.95;2.08;;;;;;;;;;5041796;28;20060;-59
2021/11/28 12:07:05;;;;;;;6.93;1.40;;;;;;;;;;5039346;28;20054;-59
2021/11/28 12:09:32;;;;;;;2.53;1.55;;;;;;;;;;5045418;28;20123;-59
2021/11/28 12:12:00;;;;;;;3.05;1.13;;;;;;;;;;5040539;28;20336;-58
2021/11/28 12:14:26;;;;;;;2.17;1.17;;;;;;;;;;5033651;28;20091;-59
2021/11/28 12:16:52;;;;;;;1.92;1.23;;;;;;;;;;5034257;28;20030;-59
2021/11/28 12:19:51;;;;;;;3.95;1.27;;;;;;;;;;5042401;28;20112;-58
2021/11/28 12:22:35;;;;;;;2.72;1.17;;;;;;;;;;5030426;28;20052;-60
2021/11/28 12:25:19;;;;;;;4.68;2.28;;;;;;;;;;5031664;28;20044;-57
2021/11/28 12:27:49;;;;;;;2.20;1.55;;;;;;;;;;5043544;28;20057;-58
2021/11/28 12:30:31;;;;;;;4.28;1.67;;;;;;;;;;5034819;28;20033;-58
2021/11/28 12:32:57;;;;;;;2.38;1.67;;;;;;;;;;5031405;28;20055;-58
2021/11/28 12:35:37;;;;;;;5.00;3.38;;;;;;;;;;5039658;28;20107;-55
2021/11/28 12:38:03;;;;;;;3.15;2.08;;;;;;;;;;5030717;28;20422;-57
2021/11/28 12:40:31;;;;;;;4.20;1.98;;;;;;;;;;5031526;28;20144;-56
2021/11/28 12:42:58;;;;;;;4.28;2.40;;;;;;;;;;5031482;28;20045;-58
2021/11/28 12:45:32;;;;;;;3.45;2.03;;;;;;;;;;5031453;28;20425;-58
2021/11/28 12:48:05;;;;;;;6.00;2.90;;;;;;;;;;5031017;28;20204;-58
2021/11/28 12:50:47;;;;;;;2.63;2.20;;;;;;;;;;5032393;28;20033;-56
2021/11/28 12:53:24;;;;;;;3.60;2.42;;;;;;;;;;5031874;28;20029;-56
2021/11/28 12:56:09;;;;;;;3.20;2.28;;;;;;;;;;5031756;28;20026;-56
2021/11/28 12:58:35;;;;;;;3.83;2.78;;;;;;;;;;5030755;28;20037;-57
2021/11/28 13:01:01;;;;;;;2.70;1.90;;;;;;;;;;5042518;28;20112;-56
2021/11/28 13:03:27;;;;;;;3.83;2.63;;;;;;;;;;5045081;28;20053;-59
2021/11/28 13:05:54;;;;;;;3.55;2.55;;;;;;;;;;5035197;28;20041;-58
2021/11/28 13:08:20;;;;;;;6.85;5.38;;;;;;;;;;5034276;28;20029;-58
2021/11/28 13:10:47;;;;;;;4.78;3.67;;;;;;;;;;5043687;28;20079;-56
2021/11/28 13:13:31;;;;;;;4.45;2.80;;;;;;;;;;5038182;28;20029;-54
2021/11/28 13:16:04;;;;;;;4.53;2.88;;;;;;;;;;5040306;28;20510;-55
2021/11/28 13:18:35;;;;;;;3.88;3.05;;;;;;;;;;5044067;28;20146;-54
2021/11/28 13:21:07;;;;;;;4.45;3.10;;;;;;;;;;5034610;28;20029;-55
2021/11/28 13:23:33;;;;;;;7.32;2.50;;;;;;;;;;5049574;28;20029;-51
2021/11/28 13:25:59;;;;;;;5.50;3.10;;;;;;;;;;5051190;28;20025;-52
2021/11/28 13:28:30;;;;;;;5.72;2.95;;;;;;;;;;5044511;28;20029;-52
2021/11/28 13:30:56;;;;;;;;;;;;;;;;;;5037063;28;20091;-54
2021/11/28 13:33:30;;;;;;;6.05;3.78;;;;;;;;;;5050691;28;20016;-48
2021/11/28 13:36:07;;;;;;;2.78;2.15;;;;;;;;;;5038941;28;20091;-53
2021/11/28 13:38:41;;;;;;;3.78;2.67;;;;;;;;;;5039956;28;20037;-54
2021/11/28 13:41:12;;;;;;;3.00;2.22;;;;;;;;;;5034385;28;20068;-52
2021/11/28 13:43:46;;;;;;;3.72;2.45;;;;;;;;;;5031281;28;20048;-53
2021/11/28 13:46:13;;;;;;;4.40;2.72;;;;;;;;;;5032479;28;20034;-53
2021/11/28 13:48:39;;;;;;;5.00;3.08;;;;;;;;;;5036486;28;20037;-50
2021/11/28 13:51:05;;;;;;;3.40;2.35;;;;;;;;;;5041541;28;20195;-53
2021/11/28 13:53:31;;;;;;;7.03;2.28;;;;;;;;;;5040456;28;20399;-55
2021/11/28 13:55:57;;;;;;;5.65;2.90;;;;;;;;;;5031117;28;20372;-55
2021/11/28 13:58:23;;;;;;;3.60;3.10;;;;;;;;;;5035612;28;20040;-55
2021/11/28 14:00:49;;;;;;;3.00;2.40;;;;;;;;;;5034341;28;20032;-52
2021/11/28 14:03:15;;;;;;;3.08;2.42;;;;;;;;;;5039072;28;20390;-55
2021/11/28 14:05:43;;;;;;;2.55;1.90;;;;;;;;;;5031151;28;20040;-53
2021/11/28 14:08:09;;;;;;;2.80;2.25;;;;;;;;;;5049820;28;20029;-51
2021/11/28 14:10:35;;;;;;;3.78;2.47;;;;;;;;;;5040419;28;20029;-52
2021/11/28 14:13:02;;;;;;;3.30;2.03;;;;;;;;;;5030867;28;20037;-49
2021/11/28 14:15:29;;;;;;;4.28;2.63;;;;;;;;;;5045654;28;20029;-50
2021/11/28 14:18:04;;;;;;;3.10;2.20;;;;;;;;;;5031725;28;20021;-51
2021/11/28 14:20:34;;;;;;;4.07;2.20;;;;;;;;;;5039322;28;20028;-51
2021/11/28 14:23:01;;;;;;;6.40;2.20;;;;;;;;;;5040718;28;20398;-54
2021/11/28 14:25:47;;;;;;;5.65;1.98;;;;;;;;;;5042364;28;20192;-57
2021/11/28 14:28:14;;;;;;;1.95;1.25;;;;;;;;;;5042212;28;20033;-56
2021/11/28 14:30:43;;;;;;;2.22;1.45;;;;;;;;;;5040073;28;20029;-52
2021/11/28 14:33:11;;;;;;;2.47;1.48;;;;;;;;;;5046014;28;20037;-58
2021/11/28 14:35:45;;;;;;;3.20;1.25;;;;;;;;;;5032977;28;20087;-57
2021/11/28 14:38:37;;;;;;;4.07;2.05;;;;;;;;;;5047293;28;20037;-53
2021/11/28 14:41:08;;;;;;;7.38;3.72;;;;;;;;;;5039794;28;20033;-57
2021/11/28 14:43:36;;;;;;;5.97;4.78;;;;;;;;;;5035883;28;20033;-53
2021/11/28 14:46:05;;;;;;;7.88;4.50;;;;;;;;;;5051735;28;20267;-55
2021/11/28 14:48:31;;;;;;;7.55;4.72;;;;;;;;;;5036793;28;20127;-57
2021/11/28 14:50:57;;;;;;;8.45;6.53;;;;;;;;;;5041424;28;20123;-53
2021/11/28 14:53:24;;;;;;;5.50;4.80;;;;;;;;;;5041233;28;20112;-54